Latest Weather Observations for Holsworthy

IDN60801

Issued at 4:34 pm EDT Tuesday 27 January 2015 (issued every 30 minutes, with the page automatically refreshed every 10 minutes)

About weather observations | Map of weather stations | Latest weather observations for NSW | Other Formats
Station Details ID: 066161 Name: HOLSWORTHY AERODROME AWS Lat: -33.99 Lon: 150.95 Height: 68.16 m
Data from the previous 72 hours. | See also: Recent months at Holsworthy
Date/Time
EDT
Temp
°C
App
Temp
°C
Dew
Point
Rel
Hum
%
Delta-T
°C
Wind Press
QNH
hPa
Press
MSL
hPa
Rain
since 9 am
mm
Dir
 
Spd
km/h
Gust
km/h
Spd
kts
Gust
kts
27/04:30pm 19.6 19.1 17.7 89 1.2 SE 17 24 9 13 1012.4 1012.1 29.6
27/04:00pm 19.6 19.1 17.9 90 1.0 SE 17 22 9 12 1012.4 1012.1 29.6
27/03:30pm 18.9 18.7 17.6 92 0.8 SE 15 24 8 13 1012.7 1012.4 29.6
27/03:00pm 18.8 18.7 17.8 94 0.6 SSE 15 20 8 11 1012.8 1012.5 29.6
27/02:30pm 18.8 19.1 18.0 95 0.5 SSE 13 17 7 9 1013.1 1012.8 29.6
27/02:00pm 18.6 17.7 17.8 95 0.5 SE 19 26 10 14 1013.2 1012.9 29.6
27/01:30pm 18.4 17.9 17.9 97 0.3 SSE 17 24 9 13 1013.4 1013.1 29.4
27/01:26pm 18.2 17.2 17.6 96 0.4 SSE 19 26 10 14 1013.4 1013.1 29.0
27/01:00pm 18.1 18.2 17.5 96 0.4 SSE 13 22 7 12 1013.6 1013.3 25.2
27/12:30pm 18.2 18.4 17.7 97 0.3 SSW 13 17 7 9 1013.9 1013.6 18.4
27/12:03pm 18.2 19.1 17.6 96 0.4 S 9 11 5 6 1014.2 1013.9 13.2
27/12:00pm 18.2 19.1 17.6 96 0.4 S 9 11 5 6 1014.2 1013.9 12.8
27/11:48am 18.2 18.4 17.6 96 0.4 SE 13 19 7 10 1014.2 1013.9 11.8
27/11:38am 18.3 18.1 17.7 96 0.4 SE 15 20 8 11 1014.1 1013.8 11.4
27/11:30am 18.2 18.3 17.4 95 0.5 ESE 13 20 7 11 1014.0 1013.7 11.0
27/11:05am 18.3 17.8 17.7 96 0.4 SE 17 22 9 12 1014.0 1013.7 10.4
27/11:03am 18.3 17.8 17.7 96 0.4 SE 17 22 9 12 1014.0 1013.7 10.4
27/11:00am 18.3 17.8 17.7 96 0.4 SE 17 24 9 13 1014.0 1013.7 10.2
27/10:45am 18.4 17.8 17.6 95 0.5 SE 17 22 9 12 1014.0 1013.7 8.6
27/10:30am 18.4 17.4 17.6 95 0.5 ESE 19 28 10 15 1013.9 1013.6 6.8
27/10:13am 18.6 18.9 17.9 96 0.4 E 13 20 7 11 1013.8 1013.5 6.0
27/10:12am 18.5 18.8 17.8 96 0.4 E 13 20 7 11 1013.8 1013.5 6.0
27/10:00am 18.7 19.8 17.9 95 0.5 E 9 13 5 7 1013.8 1013.5 4.6
27/09:57am 18.7 19.8 17.9 95 0.5 ENE 9 15 5 8 1013.8 1013.5 4.0
27/09:30am 18.6 19.2 17.6 94 0.6 SSE 11 19 6 10 1013.5 1013.2 2.2
27/09:00am 18.7 19.7 17.7 94 0.6 SE 9 15 5 8 1013.5 1013.2 11.4
27/08:30am 18.5 18.6 17.5 94 0.6 SSE 13 20 7 11 1013.1 1012.8 10.6
27/08:00am 18.2 18.8 17.6 96 0.4 S 11 15 6 8 1013.1 1012.8 10.6
27/07:30am 17.8 17.3 17.0 95 0.5 S 15 20 8 11 1013.1 1012.8 10.6
27/07:00am 17.8 17.0 17.0 95 0.5 SSE 17 22 9 12 1012.8 1012.5 10.2
27/06:30am 17.8 16.6 17.0 95 0.5 SSE 19 26 10 14 1012.5 1012.2 9.6
27/06:00am 18.2 17.5 17.4 95 0.5 SSE 17 22 9 12 1012.2 1011.9 8.8
27/05:30am 18.2 17.9 17.4 95 0.5 SSE 15 19 8 10 1012.2 1011.9 8.8
27/05:00am 18.3 18.5 17.7 96 0.4 SSE 13 17 7 9 1012.3 1012.0 8.8
27/04:38am 18.2 18.0 17.6 96 0.4 SSE 15 22 8 12 1012.3 1012.0 8.8
27/04:30am 18.4 18.3 17.8 96 0.4 SSE 15 20 8 11 1012.4 1012.1 8.6
27/04:23am 18.3 18.5 17.7 96 0.4 SSE 13 17 7 9 1012.5 1012.2 8.6
27/04:00am 18.4 19.1 17.9 97 0.3 SE 11 13 6 7 1012.8 1012.5 8.6
27/03:41am 18.5 18.8 18.0 97 0.3 SE 13 17 7 9 1012.9 1012.6 8.2
27/03:30am 18.5 18.8 18.0 97 0.3 SE 13 17 7 9 1013.0 1012.7 7.6
27/03:00am 18.4 18.7 17.8 96 0.4 ESE 13 15 7 8 1013.0 1012.7 6.2
27/02:46am 18.5 19.1 17.8 96 0.4 ESE 11 15 6 8 1013.1 1012.8 4.0
27/02:30am 18.3 18.5 17.7 96 0.4 SSE 13 19 7 10 1013.1 1012.8 3.4
27/02:00am 18.3 18.0 17.3 94 0.6 SSE 15 20 8 11 1013.2 1012.9 1.0
27/01:30am 18.2 18.2 17.2 94 0.6 SSE 13 17 7 9 1013.3 1013.0 0.8
27/01:00am 18.0 18.0 17.2 95 0.5 S 13 19 7 10 1013.6 1013.3 0.8
27/12:30am 18.0 19.1 17.0 94 0.6 SSE 7 11 4 6 1014.2 1013.9 0.8
27/12:00am 18.3 19.6 17.0 92 0.8 SW 6 11 3 6 1014.5 1014.1 0.2
 
Date/Time
EDT
Temp
°C
App
Temp
°C
Dew
Point
Rel
Hum
%
Delta-T
°C
Wind Press
QNH
hPa
Press
MSL
hPa
Rain
since 9 am
mm
Dir
 
Spd
km/h
Gust
km/h
Spd
kts
Gust
kts
26/11:30pm 18.3 18.6 17.1 93 0.7 S 11 20 6 11 1014.6 1014.2 0.2
26/11:00pm 18.2 18.6 17.2 94 0.6 S 11 17 6 9 1014.9 1014.5 0.2
26/10:30pm 18.1 18.9 17.3 95 0.5 SSE 9 17 5 9 1015.2 1014.9 0.2
26/10:00pm 17.8 18.9 17.0 95 0.5 S 7 11 4 6 1015.2 1014.9 0.2
26/09:30pm 17.6 18.2 16.8 95 0.5 SSW 9 13 5 7 1015.4 1015.1 0.2
26/09:00pm 17.5 18.1 16.7 95 0.5 SSW 9 13 5 7 1015.1 1014.8 0.2
26/08:30pm 17.6 17.7 16.6 94 0.6 S 11 17 6 9 1014.8 1014.4 0.2
26/08:27pm 17.5 17.6 16.5 94 0.6 S 11 17 6 9 1014.7 1014.3 0.2
26/08:17pm 17.7 18.3 16.7 94 0.6 SSW 9 15 5 8 1014.7 1014.3 0.2
26/08:00pm 17.9 18.6 17.1 95 0.5 S 9 13 5 7 1014.7 1014.3 0.0
26/07:58pm 17.8 18.5 17.0 95 0.5 S 9 13 5 7 1014.7 1014.3 0.0
26/07:48pm 17.7 18.3 16.7 94 0.6 S 9 11 5 6 1014.6 1014.2 0.0
26/07:47pm 17.6 18.1 16.6 94 0.6 S 9 13 5 7 1014.6 1014.2 0.0
26/07:30pm 17.7 17.9 16.7 94 0.6 S 11 15 6 8 1014.6 1014.2 0.0
26/07:22pm 17.6 17.7 16.5 93 0.7 S 11 15 6 8 1014.5 1014.1 0.0
26/07:00pm 17.6 17.6 16.3 92 0.8 S 11 20 6 11 1014.2 1013.9 0.0
26/06:30pm 17.9 17.1 16.2 90 1.0 S 15 24 8 13 1013.9 1013.6 0.0
26/06:00pm 18.6 17.3 15.8 84 1.7 S 17 26 9 14 1013.7 1013.4 0.0
26/05:30pm 19.0 17.7 15.7 81 2.0 S 17 28 9 15 1013.7 1013.4 0.0
26/05:00pm 18.7 16.9 15.4 81 1.9 S 19 26 10 14 1013.8 1013.5 0.0
26/04:30pm 18.9 16.9 15.4 80 2.1 SSE 20 30 11 16 1014.1 1013.8 0.0
26/04:00pm 19.2 16.8 15.3 78 2.3 S 22 32 12 17 1013.9 1013.6 0.0
26/03:30pm 19.5 17.5 15.0 75 2.6 SSE 19 28 10 15 1013.7 1013.4 0.0
26/03:00pm 19.6 17.5 15.3 76 2.5 SSE 20 32 11 17 1013.8 1013.5 0.0
26/02:30pm 19.3 17.5 15.6 79 2.2 S 19 32 10 17 1013.8 1013.5 0.0
26/02:00pm 18.8 18.3 16.0 84 1.7 S 13 22 7 12 1013.9 1013.6 0.0
26/01:30pm 18.7 17.5 16.1 85 1.6 S 17 26 9 14 1014.1 1013.8 0.0
26/01:00pm 19.7 17.6 15.1 75 2.7 SSE 20 30 11 16 1014.1 1013.8 0.0
26/12:30pm 20.0 17.9 14.8 72 3.1 SSE 19 28 10 15 1014.1 1013.8 0.0
26/12:00pm 20.3 18.1 14.9 71 3.2 SSE 20 30 11 16 1014.1 1013.8 0.0
26/11:30am 20.5 18.4 14.8 70 3.4 SSE 19 33 10 18 1014.0 1013.7 0.0
26/11:00am 20.7 18.5 15.0 70 3.4 S 20 30 11 16 1013.9 1013.6 0.0
26/10:30am 20.6 19.8 15.2 71 3.2 S 13 22 7 12 1013.9 1013.6 0.0
26/10:00am 20.2 18.9 14.8 71 3.2 S 15 28 8 15 1013.9 1013.6 0.0
26/09:30am 20.2 19.0 15.0 72 3.1 SSE 15 28 8 15 1013.7 1013.4 0.0
26/09:00am 20.4 19.9 15.0 71 3.2 S 11 19 6 10 1013.6 1013.3 0.2
26/08:30am 20.4 19.6 15.2 72 3.1 S 13 20 7 11 1013.2 1012.9 0.2
26/08:00am 20.4 19.7 15.4 73 3.0 S 13 19 7 10 1012.9 1012.6 0.2
26/07:30am 20.3 19.9 15.3 73 3.0 SSW 11 19 6 10 1012.6 1012.3 0.2
26/07:00am 20.1 19.7 15.3 74 2.8 SSW 11 15 6 8 1012.2 1011.9 0.2
26/06:30am 19.9 18.8 15.3 75 2.7 S 15 20 8 11 1011.6 1011.3 0.2
26/06:00am 20.1 19.4 15.3 74 2.8 S 13 20 7 11 1011.4 1011.1 0.2
26/05:30am 20.0 18.9 15.4 75 2.7 S 15 24 8 13 1010.9 1010.6 0.2
26/05:00am 20.1 18.7 15.5 75 2.7 SSE 17 24 9 13 1010.8 1010.5 0.2
26/04:30am 20.0 18.3 15.8 77 2.5 S 19 30 10 16 1010.7 1010.4 0.2
26/04:00am 20.1 18.5 15.9 77 2.5 S 19 28 10 15 1010.7 1010.4 0.2
26/03:30am 20.2 19.0 16.0 77 2.5 S 17 22 9 12 1010.6 1010.3 0.2
26/03:00am 20.3 19.1 16.1 77 2.5 SSW 17 28 9 15 1010.5 1010.2 0.2
26/02:30am 20.5 19.4 16.3 77 2.5 SSW 17 28 9 15 1010.5 1010.2 0.2
26/02:00am 20.7 20.4 16.5 77 2.5 SSW 13 17 7 9 1010.8 1010.5 0.2
26/01:30am 20.8 21.0 16.8 78 2.4 SW 11 15 6 8 1010.7 1010.4 0.2
26/01:00am 20.8 20.3 16.8 78 2.4 S 15 22 8 12 1010.6 1010.3 0.2
26/12:30am 21.0 20.9 17.0 78 2.4 S 13 20 7 11 1010.5 1010.2 0.2
26/12:00am 21.1 20.6 16.9 77 2.6 S 15 20 8 11 1010.5 1010.2 0.2
 
Date/Time
EDT
Temp
°C
App
Temp
°C
Dew
Point
Rel
Hum
%
Delta-T
°C
Wind Press
QNH
hPa
Press
MSL
hPa
Rain
since 9 am
mm
Dir
 
Spd
km/h
Gust
km/h
Spd
kts
Gust
kts
25/11:30pm 21.2 20.8 17.2 78 2.5 S 15 24 8 13 1010.0 1009.7 0.2
25/11:00pm 21.2 20.0 17.4 79 2.3 S 20 35 11 19 1009.6 1009.3 0.2
25/10:30pm 21.3 19.8 17.7 80 2.2 SSE 22 35 12 19 1009.3 1009.0 0.2
25/10:00pm 21.6 20.6 18.0 80 2.2 SSE 20 33 11 18 1008.7 1008.4 0.2
25/09:30pm 21.8 18.8 17.8 78 2.5 SSE 30 48 16 26 1008.0 1007.7 0.2
25/09:00pm 22.0 18.5 18.0 78 2.5 SSE 33 54 18 29 1007.1 1006.8 0.2
25/08:30pm 22.3 19.1 18.1 77 2.6 SSE 32 56 17 30 1006.5 1006.2 0.2
25/08:11pm 22.7 19.9 18.3 76 2.8 SE 30 48 16 26 1006.1 1005.8 0.2
25/08:00pm 22.8 20.0 18.1 75 3.0 SE 30 46 16 25 1005.9 1005.6 0.2
25/07:30pm 23.8 20.6 18.2 71 3.5 SSE 32 56 17 30 1005.4 1005.1 0.2
25/07:12pm 25.0 21.1 18.7 68 4.0 SSE 37 56 20 30 1004.9 1004.6 0.2
25/07:00pm 25.6 21.7 18.8 66 4.4 SE 37 54 20 29 1004.5 1004.2 0.2
25/06:54pm 26.3 22.6 18.4 61 5.0 SSE 35 48 19 26 1004.3 1004.0 0.2
25/06:43pm 30.3 27.8 15.2 40 9.3 SW 22 59 12 32 1003.7 1003.4 0.2
25/06:30pm 35.1 32.2 10.9 23 14.2 SW 17 28 9 15 1003.0 1002.7 0.2
25/06:00pm 35.7 32.9 11.4 23 14.5 WSW 17 26 9 14 1002.5 1002.2 0.2
25/05:30pm 35.6 32.6 10.6 22 14.7 WSW 17 32 9 17 1002.3 1002.0 0.2
25/05:00pm 36.1 32.6 11.0 22 14.9 WSW 20 39 11 21 1002.0 1001.6 0.2
25/04:30pm 35.9 32.4 12.2 24 14.3 WSW 22 37 12 20 1001.9 1001.5 0.2
25/04:00pm 36.3 32.7 13.1 25 14.2 W 24 35 13 19 1001.6 1001.2 0.2
25/03:30pm 36.5 34.3 15.0 27 13.5 WSW 20 41 11 22 1001.5 1001.1 0.2
25/03:00pm 35.5 34.0 16.3 32 12.3 W 19 33 10 18 1001.6 1001.2 0.2
25/02:30pm 35.3 34.7 18.4 37 11.1 W 19 32 10 17 1001.6 1001.2 0.2
25/02:00pm 35.0 35.2 18.6 38 10.8 W 15 26 8 14 1001.6 1001.2 0.2
25/01:30pm 34.4 34.9 18.4 38 10.5 W 13 24 7 13 1001.8 1001.4 0.2
25/01:00pm 33.6 34.0 18.1 39 10.1 WSW 13 22 7 12 1002.0 1001.6 0.2
25/12:30pm 32.7 33.4 18.8 43 9.1 SW 13 22 7 12 1002.2 1001.8 0.2
25/12:00pm 32.6 32.7 19.1 44 8.9 W 17 24 9 13 1002.6 1002.3 0.2
25/11:30am 31.4 32.2 19.1 48 8.0 SW 13 20 7 11 1002.9 1002.6 0.2
25/11:00am 29.7 31.4 19.4 54 6.8 WSW 9 15 5 8 1003.0 1002.7 0.2
25/10:30am 28.2 29.3 18.9 57 6.0 W 11 19 6 10 1003.1 1002.8 0.2
25/10:00am 27.9 29.4 19.7 61 5.4 W 11 17 6 9 1003.1 1002.8 0.0
25/09:30am 25.6 27.9 19.9 70 3.7 N 7 13 4 7 1003.0 1002.7 0.0
25/09:00am 24.3 26.8 20.2 78 2.7 NW 7 11 4 6 1003.3 1003.0 0.4
25/08:30am 22.4 24.7 19.4 83 1.9 NNW 6 9 3 5 1003.4 1003.1 0.4
25/08:00am 21.1 24.9 20.1 94 0.6 CALM 0 0 0 0 1003.4 1003.1 0.4
25/07:30am 20.5 22.9 19.7 95 0.5 NW 6 7 3 4 1003.1 1002.8 0.4
25/07:00am 20.1 23.5 19.3 95 0.5 CALM 0 0 0 0 1002.9 1002.6 0.4
25/06:30am 19.7 22.9 18.9 95 0.5 CALM 0 6 0 3 1002.6 1002.3 0.4
25/06:00am 19.6 22.8 18.8 95 0.5 CALM 0 0 0 0 1002.1 1001.7 0.4
25/05:30am 19.7 22.8 18.7 94 0.6 CALM 0 0 0 0 1002.1 1001.7 0.4
25/05:00am 19.8 21.8 18.8 94 0.6 SW 6 7 3 4 1002.1 1001.7 0.4
25/04:30am 19.9 21.4 18.9 94 0.6 SW 9 11 5 6 1002.2 1001.8 0.4
25/04:00am 20.0 22.1 19.0 94 0.6 S 6 7 3 4 1002.3 1002.0 0.4
25/03:30am 20.2 22.3 19.4 95 0.5 SW 7 9 4 5 1002.5 1002.2 0.4
25/03:00am 20.3 22.6 19.5 95 0.5 WSW 6 9 3 5 1003.1 1002.8 0.4
25/02:30am 20.6 22.9 19.8 95 0.5 WSW 7 9 4 5 1003.7 1003.4 0.4
25/02:00am 20.6 22.9 19.8 95 0.5 WNW 7 11 4 6 1004.2 1003.9 0.4
25/01:30am 20.9 23.2 19.9 94 0.6 W 7 9 4 5 1004.6 1004.3 0.4
25/01:00am 21.0 23.5 19.8 93 0.8 WSW 6 9 3 5 1005.1 1004.8 0.4
25/12:30am 21.2 22.8 20.0 93 0.8 WSW 11 15 6 8 1005.3 1005.0 0.4
25/12:00am 21.7 24.2 20.3 92 0.9 WNW 7 11 4 6 1005.5 1005.2 0.4
 
Date/Time
EDT
Temp
°C
App
Temp
°C
Dew
Point
Rel
Hum
%
Delta-T
°C
Wind Press
QNH
hPa
Press
MSL
hPa
Rain
since 9 am
mm
Dir
 
Spd
km/h
Gust
km/h
Spd
kts
Gust
kts
24/11:30pm 22.0 23.5 20.6 92 0.9 NE 13 22 7 12 1005.4 1005.1 0.4
24/11:00pm 22.2 24.0 20.3 89 1.2 SSE 11 13 6 7 1005.6 1005.3 0.4
24/10:30pm 22.3 24.9 20.0 87 1.5 S 6 13 3 7 1006.5 1006.2 0.2
24/10:00pm 22.3 23.0 19.7 85 1.7 SW 15 24 8 13 1006.8 1006.5 0.2
24/09:30pm 25.2 27.6 19.6 71 3.6 NNE 6 7 3 4 1006.5 1006.2 0.0
24/09:00pm 25.4 27.5 19.3 69 3.9 ENE 7 11 4 6 1006.2 1005.9 0.0
24/08:30pm 25.5 26.8 19.2 68 4.1 E 11 13 6 7 1005.1 1004.8 0.0
24/08:00pm 25.8 27.5 19.4 67 4.1 NNE 9 17 5 9 1005.5 1005.2 0.0
24/07:30pm 25.8 26.7 19.2 67 4.2 ENE 13 20 7 11 1004.9 1004.6 0.0
24/07:00pm 26.0 26.4 18.9 65 4.6 ENE 15 20 8 11 1004.6 1004.3 0.0
24/06:30pm 26.4 25.5 18.3 61 5.2 ENE 20 33 11 18 1003.8 1003.5 0.0
24/06:00pm 27.1 26.5 18.4 59 5.6 E 19 30 10 16 1003.9 1003.6 0.0
24/05:30pm 27.5 26.7 18.5 58 5.8 E 20 28 11 15 1003.6 1003.3 0.0
24/05:00pm 28.2 27.6 18.9 57 6.0 ENE 20 28 11 15 1003.4 1003.1 0.0

Other Formats:

Comma delimited format used in spreadsheet applications
http://www.bom.gov.au/fwo/IDN60801/IDN60801.95761.axf

JavaScript Object Notation format (JSON) in row-major order
http://www.bom.gov.au/fwo/IDN60801/IDN60801.95761.json